Ronnie Rogers — WDD2270 — position and weather

sailwx.info

Track history (hours):
 
Tides and Currents Weather Stations Pressure Air Temp Water Temp Dewpoint Dewpoint Depression Visibility Wind Speed Wind Dir Waves Ship Positions

Ronnie Rogers

Owner: Florida Marine, LLC, Mandeville, LA. More information available from US FCC via Universal Licensing System and Coast Guard Vessel Documentation Center.

Last reported at 2016-Jun-26 08:29 UTC. Time now 2016-Jun-29 03:52 UTC.
Position N 29°54' W 093°54'.

Length 27 m.

Type: Other ship. MMSI: 367113160.

Date/timePositionNaut miles runAvg speedWind from/ knotsBaromVisibWave heightAir tempDewpointWater temp
2016-Jun-26 08:29N 29°54' W 093°54'7 7.3
2016-Jun-26 07:31N 29°59' W 093°48'6 6.4
2016-Jun-26 06:33N 30°03' W 093°42'6 6.2
2016-Jun-26 05:33N 30°04' W 093°35'6 5.8
2016-Jun-26 04:33N 30°04' W 093°29'6 5.6
2016-Jun-26 03:33N 30°04' W 093°22'2 1.7
2016-Jun-26 02:33N 30°04' W 093°20'1 0.7
2016-Jun-26 01:33N 30°05' W 093°20'3 3.1
2016-Jun-26 00:33N 30°08' W 093°19'0 0.0
2016-Jun-25 23:33N 30°08' W 093°19'0 0.0
2016-Jun-25 22:33N 30°08' W 093°19'0 0.0
2016-Jun-25 21:33N 30°08' W 093°19'0 0.0
2016-Jun-25 20:33N 30°08' W 093°19'0 0.0
2016-Jun-25 19:33N 30°08' W 093°19'0 0.0
2016-Jun-25 18:33N 30°08' W 093°19'0 0.0
2016-Jun-25 17:33N 30°08' W 093°19'0 0.0
2016-Jun-25 16:33N 30°08' W 093°19'0 0.0
2016-Jun-25 15:33N 30°08' W 093°19'0 0.0
2016-Jun-25 14:33N 30°08' W 093°19'0 0.1
2016-Jun-25 13:33N 30°08' W 093°20'0 0.0
2016-Jun-25 12:33N 30°08' W 093°20'0 0.1
2016-Jun-25 11:33N 30°08' W 093°19'0 0.0
2016-Jun-25 10:33N 30°08' W 093°20'0 0.0
2016-Jun-25 09:33N 30°08' W 093°20'0 0.0
2016-Jun-25 08:33N 30°08' W 093°20'0 0.0
2016-Jun-25 07:33N 30°08' W 093°20'0 0.0
2016-Jun-25 06:33N 30°08' W 093°20'0 0.0
2016-Jun-25 05:33N 30°08' W 093°20'0 0.0
2016-Jun-25 04:33N 30°08' W 093°20'2 2.3
2016-Jun-25 03:33N 30°10' W 093°19'6 5.7
2016-Jun-25 02:33N 30°15' W 093°15'3 2.9
2016-Jun-25 01:32N 30°16' W 093°12'2 2.1
2016-Jun-25 00:23N 30°18' W 093°10'  
2016-Jun-22 16:32N 30°17' W 093°09'2 2.1
2016-Jun-22 15:34N 30°18' W 093°11'3 2.7
2016-Jun-22 14:33N 30°15' W 093°13'4 3.8
2016-Jun-22 13:33N 30°13' W 093°16'7 7.0
2016-Jun-22 12:34N 30°07' W 093°20'2 2.3
2016-Jun-22 11:33N 30°04' W 093°20'0 0.0
2016-Jun-22 10:33N 30°04' W 093°20'0 0.0
2016-Jun-22 09:33N 30°04' W 093°20'0 0.0
2016-Jun-22 08:33N 30°04' W 093°20'0 0.0
2016-Jun-22 07:33N 30°04' W 093°20'0 0.0
2016-Jun-22 06:33N 30°04' W 093°20'0 0.0
2016-Jun-22 05:33N 30°04' W 093°20'0 0.0
2016-Jun-22 04:33N 30°04' W 093°20'0 0.0
2016-Jun-22 03:33N 30°04' W 093°20'0 0.0
2016-Jun-22 02:33N 30°04' W 093°20'0 0.0
2016-Jun-22 01:33N 30°04' W 093°20'0 0.0
2016-Jun-22 00:33N 30°04' W 093°20'0 0.0
2016-Jun-21 23:33N 30°04' W 093°20'0 0.0
2016-Jun-21 22:33N 30°04' W 093°20'0 0.0
2016-Jun-21 21:33N 30°04' W 093°20'0 0.0
2016-Jun-21 20:33N 30°04' W 093°20'0 0.0
2016-Jun-21 19:33N 30°04' W 093°20'0 0.0
2016-Jun-21 18:33N 30°04' W 093°20'0 0.0
2016-Jun-21 17:33N 30°04' W 093°20'1 0.8
2016-Jun-21 16:34N 30°05' W 093°20'0 0.2
2016-Jun-21 15:33N 30°05' W 093°20'0 0.0
2016-Jun-21 14:33N 30°05' W 093°20'1 0.6
2016-Jun-21 13:33N 30°05' W 093°20'1 0.8
2016-Jun-21 12:33N 30°05' W 093°20'3 2.7
2016-Jun-21 11:33N 30°08' W 093°20'1 0.6
2016-Jun-21 10:33N 30°08' W 093°19'0 0.0
2016-Jun-21 09:33N 30°08' W 093°19'0 0.0
2016-Jun-21 08:33N 30°08' W 093°19'0 0.0
2016-Jun-21 07:33N 30°08' W 093°19'0 0.0
2016-Jun-21 05:33N 30°08' W 093°19'0 0.0
2016-Jun-21 04:33N 30°08' W 093°19'0 0.0
2016-Jun-21 03:33N 30°08' W 093°19'0 0.0
2016-Jun-21 02:33N 30°08' W 093°19'0 0.0
2016-Jun-21 01:33N 30°08' W 093°19'0 0.0
2016-Jun-21 00:33N 30°08' W 093°19'0 0.0
2016-Jun-20 23:33N 30°08' W 093°19'0 0.0
2016-Jun-20 22:33N 30°08' W 093°19'0 0.0
2016-Jun-20 21:32N 30°08' W 093°19'0 0.0
2016-Jun-20 20:33N 30°08' W 093°19'0 0.0
2016-Jun-20 19:33N 30°08' W 093°19'0 0.0
2016-Jun-20 18:33N 30°08' W 093°19'0 0.0
2016-Jun-20 17:33N 30°08' W 093°19'0 0.0
2016-Jun-20 16:33N 30°08' W 093°19'0 0.2
2016-Jun-20 15:33N 30°08' W 093°19'0 0.0
2016-Jun-20 14:33N 30°08' W 093°19'0 0.0
2016-Jun-20 13:33N 30°08' W 093°19'0 0.0
2016-Jun-20 12:33N 30°08' W 093°19'0 0.0
2016-Jun-20 11:33N 30°08' W 093°19'0 0.0
2016-Jun-20 10:33N 30°08' W 093°20'2 1.5
2016-Jun-20 09:33N 30°07' W 093°20'1 1.1
2016-Jun-20 08:33N 30°06' W 093°19'0 0.1
2016-Jun-20 07:33N 30°06' W 093°19'0 0.0
2016-Jun-20 06:33N 30°06' W 093°19'0 0.0
2016-Jun-20 05:33N 30°06' W 093°19'0 0.1
2016-Jun-20 04:33N 30°06' W 093°19'4 3.7
2016-Jun-20 03:33N 30°03' W 093°16'5 4.9
2016-Jun-20 02:33N 29°59' W 093°13'5 4.7
2016-Jun-20 01:33N 29°56' W 093°09'4 4.3
2016-Jun-20 00:33N 29°56' W 093°04'5 5.1
2016-Jun-19 23:33N 29°56' W 092°58'5 4.8
2016-Jun-19 22:30N 29°57' W 092°52'20 5.1
2016-Jun-19 18:33N 29°54' W 092°29'5 5.0
2016-Jun-19 17:33N 29°53' W 092°24'4 4.5
2016-Jun-19 16:33N 29°50' W 092°19'5 5.0
2016-Jun-19 15:33N 29°48' W 092°14'3 3.0
2016-Jun-19 14:33N 29°47' W 092°11'0 0.4
2016-Jun-19 13:33N 29°47' W 092°11'5 5.0
2016-Jun-19 12:33N 29°48' W 092°05'5 5.3
2016-Jun-19 11:33N 29°50' W 091°59'57 4.7
2016-Jun-18 23:29N 29°34' W 090°57'5 5.5
2016-Jun-18 22:33N 29°32' W 090°51'5 5.2
2016-Jun-18 21:33N 29°33' W 090°45'4 3.9
2016-Jun-18 20:33N 29°36' W 090°43'1 1.3
2016-Jun-18 19:33N 29°37' W 090°42'0 0.1
2016-Jun-18 18:33N 29°37' W 090°42'0 0.0
2016-Jun-18 17:33N 29°37' W 090°42'0 0.0
2016-Jun-18 16:33N 29°37' W 090°42'0 0.0
2016-Jun-18 15:33N 29°37' W 090°42'0 0.0
2016-Jun-18 14:33N 29°37' W 090°42'0 0.0
2016-Jun-18 13:33N 29°37' W 090°42'0 0.0
2016-Jun-18 12:33N 29°37' W 090°42'0 0.0
2016-Jun-18 11:33N 29°37' W 090°42'0 0.0
2016-Jun-18 10:33N 29°37' W 090°42'0 0.0
2016-Jun-18 09:33N 29°37' W 090°42'0 0.0
2016-Jun-18 08:33N 29°37' W 090°42'0 0.0
2016-Jun-18 07:33N 29°37' W 090°42'0 0.1
2016-Jun-18 06:33N 29°37' W 090°42'0 0.0
2016-Jun-18 05:33N 29°37' W 090°42'0 0.0
2016-Jun-18 04:33N 29°37' W 090°42'0 0.0
2016-Jun-18 03:33N 29°37' W 090°42'0 0.0
2016-Jun-18 02:33N 29°37' W 090°42'0 0.0
2016-Jun-18 01:33N 29°37' W 090°42'0 0.0
2016-Jun-18 00:33N 29°37' W 090°42'0 0.0
2016-Jun-17 23:33N 29°37' W 090°42'0 0.0
2016-Jun-17 22:33N 29°37' W 090°42'0 0.0
2016-Jun-17 21:33N 29°37' W 090°42'0 0.0
2016-Jun-17 20:33N 29°37' W 090°42'0 0.1
2016-Jun-17 19:33N 29°37' W 090°42'0 0.0
2016-Jun-17 18:33N 29°37' W 090°42'0 0.0
2016-Jun-17 17:33N 29°37' W 090°42'0 0.0
2016-Jun-17 16:33N 29°37' W 090°42'0 0.0
2016-Jun-17 15:33N 29°37' W 090°42'0 0.0
2016-Jun-17 14:33N 29°37' W 090°42'0 0.0
2016-Jun-17 13:33N 29°37' W 090°42'0 0.0
2016-Jun-17 12:33N 29°37' W 090°42'0 0.0
2016-Jun-17 11:33N 29°37' W 090°42'0 0.5
2016-Jun-17 10:33N 29°37' W 090°42'5 4.8
2016-Jun-17 09:33N 29°33' W 090°45'8 6.9
2016-Jun-17 08:23N 29°33' W 090°55'25 4.1
2016-Jun-17 02:16N 29°39' W 091°23'29 5.6
2016-Jun-16 21:05N 29°51' W 091°53'4 6.6
2016-Jun-16 20:33N 29°50' W 091°57'7 6.6
2016-Jun-16 19:33N 29°48' W 092°04'6 6.5
2016-Jun-16 18:33N 29°47' W 092°12'7 6.7
2016-Jun-16 17:33N 29°50' W 092°19'6 6.5
2016-Jun-16 16:33N 29°53' W 092°25'32 6.3
2016-Jun-16 11:31N 29°56' W 093°01'  
Track history (hours):
 
Tides and Currents Weather Stations Pressure Air Temp Water Temp Dewpoint Dewpoint Depression Visibility Wind Speed Wind Dir Waves Ship Positions

Ronnie Rogers

Owner: Florida Marine, LLC, Mandeville, LA. More information available from US FCC via Universal Licensing System and Coast Guard Vessel Documentation Center.

Last reported at 2016-Jun-26 08:29 UTC. Time now 2016-Jun-29 03:52 UTC.
Position N 29°54' W 093°54'.

Length 27 m.

Type: Other ship. MMSI: 367113160.

Date/timePositionNaut miles runAvg speedWind from/ knotsBaromVisibWave heightAir tempDewpointWater temp
2016-Jun-26 08:29N 29°54' W 093°54'7 7.3
2016-Jun-26 07:31N 29°59' W 093°48'6 6.4
2016-Jun-26 06:33N 30°03' W 093°42'6 6.2
2016-Jun-26 05:33N 30°04' W 093°35'6 5.8
2016-Jun-26 04:33N 30°04' W 093°29'6 5.6
2016-Jun-26 03:33N 30°04' W 093°22'2 1.7
2016-Jun-26 02:33N 30°04' W 093°20'1 0.7
2016-Jun-26 01:33N 30°05' W 093°20'3 3.1
2016-Jun-26 00:33N 30°08' W 093°19'0 0.0
2016-Jun-25 23:33N 30°08' W 093°19'0 0.0
2016-Jun-25 22:33N 30°08' W 093°19'0 0.0
2016-Jun-25 21:33N 30°08' W 093°19'0 0.0
2016-Jun-25 20:33N 30°08' W 093°19'0 0.0
2016-Jun-25 19:33N 30°08' W 093°19'0 0.0
2016-Jun-25 18:33N 30°08' W 093°19'0 0.0
2016-Jun-25 17:33N 30°08' W 093°19'0 0.0
2016-Jun-25 16:33N 30°08' W 093°19'0 0.0
2016-Jun-25 15:33N 30°08' W 093°19'0 0.0
2016-Jun-25 14:33N 30°08' W 093°19'0 0.1
2016-Jun-25 13:33N 30°08' W 093°20'0 0.0
2016-Jun-25 12:33N 30°08' W 093°20'0 0.1
2016-Jun-25 11:33N 30°08' W 093°19'0 0.0
2016-Jun-25 10:33N 30°08' W 093°20'0 0.0
2016-Jun-25 09:33N 30°08' W 093°20'0 0.0
2016-Jun-25 08:33N 30°08' W 093°20'0 0.0
2016-Jun-25 07:33N 30°08' W 093°20'0 0.0
2016-Jun-25 06:33N 30°08' W 093°20'0 0.0
2016-Jun-25 05:33N 30°08' W 093°20'0 0.0
2016-Jun-25 04:33N 30°08' W 093°20'2 2.3
2016-Jun-25 03:33N 30°10' W 093°19'6 5.7
2016-Jun-25 02:33N 30°15' W 093°15'3 2.9
2016-Jun-25 01:32N 30°16' W 093°12'2 2.1
2016-Jun-25 00:23N 30°18' W 093°10'  
2016-Jun-22 16:32N 30°17' W 093°09'2 2.1
2016-Jun-22 15:34N 30°18' W 093°11'3 2.7
2016-Jun-22 14:33N 30°15' W 093°13'4 3.8
2016-Jun-22 13:33N 30°13' W 093°16'7 7.0
2016-Jun-22 12:34N 30°07' W 093°20'2 2.3
2016-Jun-22 11:33N 30°04' W 093°20'0 0.0
2016-Jun-22 10:33N 30°04' W 093°20'0 0.0
2016-Jun-22 09:33N 30°04' W 093°20'0 0.0
2016-Jun-22 08:33N 30°04' W 093°20'0 0.0
2016-Jun-22 07:33N 30°04' W 093°20'0 0.0
2016-Jun-22 06:33N 30°04' W 093°20'0 0.0
2016-Jun-22 05:33N 30°04' W 093°20'0 0.0
2016-Jun-22 04:33N 30°04' W 093°20'0 0.0
2016-Jun-22 03:33N 30°04' W 093°20'0 0.0
2016-Jun-22 02:33N 30°04' W 093°20'0 0.0
2016-Jun-22 01:33N 30°04' W 093°20'0 0.0
2016-Jun-22 00:33N 30°04' W 093°20'0 0.0
2016-Jun-21 23:33N 30°04' W 093°20'0 0.0
2016-Jun-21 22:33N 30°04' W 093°20'0 0.0
2016-Jun-21 21:33N 30°04' W 093°20'0 0.0
2016-Jun-21 20:33N 30°04' W 093°20'0 0.0
2016-Jun-21 19:33N 30°04' W 093°20'0 0.0
2016-Jun-21 18:33N 30°04' W 093°20'0 0.0
2016-Jun-21 17:33N 30°04' W 093°20'1 0.8
2016-Jun-21 16:34N 30°05' W 093°20'0 0.2
2016-Jun-21 15:33N 30°05' W 093°20'0 0.0
2016-Jun-21 14:33N 30°05' W 093°20'1 0.6
2016-Jun-21 13:33N 30°05' W 093°20'1 0.8
2016-Jun-21 12:33N 30°05' W 093°20'3 2.7
2016-Jun-21 11:33N 30°08' W 093°20'1 0.6
2016-Jun-21 10:33N 30°08' W 093°19'0 0.0
2016-Jun-21 09:33N 30°08' W 093°19'0 0.0
2016-Jun-21 08:33N 30°08' W 093°19'0 0.0
2016-Jun-21 07:33N 30°08' W 093°19'0 0.0
2016-Jun-21 05:33N 30°08' W 093°19'0 0.0
2016-Jun-21 04:33N 30°08' W 093°19'0 0.0
2016-Jun-21 03:33N 30°08' W 093°19'0 0.0
2016-Jun-21 02:33N 30°08' W 093°19'0 0.0
2016-Jun-21 01:33N 30°08' W 093°19'0 0.0
2016-Jun-21 00:33N 30°08' W 093°19'0 0.0
2016-Jun-20 23:33N 30°08' W 093°19'0 0.0
2016-Jun-20 22:33N 30°08' W 093°19'0 0.0
2016-Jun-20 21:32N 30°08' W 093°19'0 0.0
2016-Jun-20 20:33N 30°08' W 093°19'0 0.0
2016-Jun-20 19:33N 30°08' W 093°19'0 0.0
2016-Jun-20 18:33N 30°08' W 093°19'0 0.0
2016-Jun-20 17:33N 30°08' W 093°19'0 0.0
2016-Jun-20 16:33N 30°08' W 093°19'0 0.2
2016-Jun-20 15:33N 30°08' W 093°19'0 0.0
2016-Jun-20 14:33N 30°08' W 093°19'0 0.0
2016-Jun-20 13:33N 30°08' W 093°19'0 0.0
2016-Jun-20 12:33N 30°08' W 093°19'0 0.0
2016-Jun-20 11:33N 30°08' W 093°19'0 0.0
2016-Jun-20 10:33N 30°08' W 093°20'2 1.5
2016-Jun-20 09:33N 30°07' W 093°20'1 1.1
2016-Jun-20 08:33N 30°06' W 093°19'0 0.1
2016-Jun-20 07:33N 30°06' W 093°19'0 0.0
2016-Jun-20 06:33N 30°06' W 093°19'0 0.0
2016-Jun-20 05:33N 30°06' W 093°19'0 0.1
2016-Jun-20 04:33N 30°06' W 093°19'4 3.7
2016-Jun-20 03:33N 30°03' W 093°16'5 4.9
2016-Jun-20 02:33N 29°59' W 093°13'5 4.7
2016-Jun-20 01:33N 29°56' W 093°09'4 4.3
2016-Jun-20 00:33N 29°56' W 093°04'5 5.1
2016-Jun-19 23:33N 29°56' W 092°58'5 4.8
2016-Jun-19 22:30N 29°57' W 092°52'20 5.1
2016-Jun-19 18:33N 29°54' W 092°29'5 5.0
2016-Jun-19 17:33N 29°53' W 092°24'4 4.5
2016-Jun-19 16:33N 29°50' W 092°19'5 5.0
2016-Jun-19 15:33N 29°48' W 092°14'3 3.0
2016-Jun-19 14:33N 29°47' W 092°11'0 0.4
2016-Jun-19 13:33N 29°47' W 092°11'5 5.0
2016-Jun-19 12:33N 29°48' W 092°05'5 5.3
2016-Jun-19 11:33N 29°50' W 091°59'57 4.7
2016-Jun-18 23:29N 29°34' W 090°57'5 5.5
2016-Jun-18 22:33N 29°32' W 090°51'5 5.2
2016-Jun-18 21:33N 29°33' W 090°45'4 3.9
2016-Jun-18 20:33N 29°36' W 090°43'1 1.3
2016-Jun-18 19:33N 29°37' W 090°42'0 0.1
2016-Jun-18 18:33N 29°37' W 090°42'0 0.0
2016-Jun-18 17:33N 29°37' W 090°42'0 0.0
2016-Jun-18 16:33N 29°37' W 090°42'0 0.0
2016-Jun-18 15:33N 29°37' W 090°42'0 0.0
2016-Jun-18 14:33N 29°37' W 090°42'0 0.0
2016-Jun-18 13:33N 29°37' W 090°42'0 0.0
2016-Jun-18 12:33N 29°37' W 090°42'0 0.0
2016-Jun-18 11:33N 29°37' W 090°42'0 0.0
2016-Jun-18 10:33N 29°37' W 090°42'0 0.0
2016-Jun-18 09:33N 29°37' W 090°42'0 0.0
2016-Jun-18 08:33N 29°37' W 090°42'0 0.0
2016-Jun-18 07:33N 29°37' W 090°42'0 0.1
2016-Jun-18 06:33N 29°37' W 090°42'0 0.0
2016-Jun-18 05:33N 29°37' W 090°42'0 0.0
2016-Jun-18 04:33N 29°37' W 090°42'0 0.0
2016-Jun-18 03:33N 29°37' W 090°42'0 0.0
2016-Jun-18 02:33N 29°37' W 090°42'0 0.0
2016-Jun-18 01:33N 29°37' W 090°42'0 0.0
2016-Jun-18 00:33N 29°37' W 090°42'0 0.0
2016-Jun-17 23:33N 29°37' W 090°42'0 0.0
2016-Jun-17 22:33N 29°37' W 090°42'0 0.0
2016-Jun-17 21:33N 29°37' W 090°42'0 0.0
2016-Jun-17 20:33N 29°37' W 090°42'0 0.1
2016-Jun-17 19:33N 29°37' W 090°42'0 0.0
2016-Jun-17 18:33N 29°37' W 090°42'0 0.0
2016-Jun-17 17:33N 29°37' W 090°42'0 0.0
2016-Jun-17 16:33N 29°37' W 090°42'0 0.0
2016-Jun-17 15:33N 29°37' W 090°42'0 0.0
2016-Jun-17 14:33N 29°37' W 090°42'0 0.0
2016-Jun-17 13:33N 29°37' W 090°42'0 0.0
2016-Jun-17 12:33N 29°37' W 090°42'0 0.0
2016-Jun-17 11:33N 29°37' W 090°42'0 0.5
2016-Jun-17 10:33N 29°37' W 090°42'5 4.8
2016-Jun-17 09:33N 29°33' W 090°45'8 6.9
2016-Jun-17 08:23N 29°33' W 090°55'25 4.1
2016-Jun-17 02:16N 29°39' W 091°23'29 5.6
2016-Jun-16 21:05N 29°51' W 091°53'4 6.6
2016-Jun-16 20:33N 29°50' W 091°57'7 6.6
2016-Jun-16 19:33N 29°48' W 092°04'6 6.5
2016-Jun-16 18:33N 29°47' W 092°12'7 6.7
2016-Jun-16 17:33N 29°50' W 092°19'6 6.5
2016-Jun-16 16:33N 29°53' W 092°25'32 6.3
2016-Jun-16 11:31N 29°56' W 093°01'  

Dump ship's entire track history